Airfield :
LOGIN :

Register | Disclaimer

   EN    FR    IT 

 










Legend :    VFR   Marginal VFR   IFR   Intensive IFR   Very Intensive IFR
Visi :
Ceiling :
>= 8 km
>= 3000ft
5 to 8 km
1000 to 3000 ft
1500m to 5 km
500 to 1000 ft
800 to 1500m
200 to 500 ft
< 800m
< 200 ft
Symbols :   Thunderstorms  Fog  Heavy snow  Heavy precipitations  Wind > 20 kt
SIGMETs :     Misc.  Thunderstorms  Icing  Turbulence  Mountain Waves  Volcanic Ashes







- Airport Elevation : 529 ft
- IATA code : CHR
- Download approach charts


LFLX - Chateauroux

CURRENT METAR :
  • 210430Z AUTO 28010KT CAVOK 09/06 Q1016 NOSIG

EXPIRED METARs :
  • 210400Z AUTO 28010KT CAVOK 09/06 Q1016 TEMPO 27015G25KT
  • 210330Z AUTO 28010KT CAVOK 09/06 Q1016 TEMPO 27015G25KT
  • 210300Z AUTO 29013KT 9999 FEW044 OVC100 09/06 Q1016 BECMG 27015G25KT
  • 210230Z AUTO 30012KT 9999 SCT045 OVC110 09/06 Q1016 BECMG 27015G25KT
  • 210200Z AUTO 29011KT 9999 FEW029 SCT046 BKN110 09/06 Q1015 TEMPO BKN012 BECMG 27015G25KT

TAF TAF LFLX
Valid from the 21 at 00:00 until the 22 at 06:00 UTC


202300Z 2100/2206 27015G25KT 9999 BKN020
PROB30
TEMPO 2100/2103 BKN012
BECMG 2105/2107 23006KT
TEMPO 2107/2112 3000 RA BKN008
TEMPO 2112/2114 2500 -RADZ BKN003
BECMG 2114/2116 26015G25KT BKN006
PROB30
TEMPO 2114/2206 2000 -RADZ BKN003
No reported NOTAMs for that airfield.
1 SIGMET reported for the Bordeaux FIR (LFBB) :
 
Severe mountain waves
LFBB SIGMET 1 VALID 210300/210700 LFPW
LFBB BORDEAUX FIR/UIR SEV MTW FCST WI N4245 E00230 - N4215 E00230 - N4245 E00000 - N4300 E00000 - N4245 E00230 SFC/FL350 STNR NC=



MET'MAP, your aeronautical weather chart ! - Copyright ORBIFLY December 2007 - Disclaimer

ORBIFLY MET'MAP TEAM :

Programming & Development : Alexandra Zaïnal
Concept & Development : Baudouin d'Aumeries
Co-Development & Prog : Marc-Olivier Méhu
Technical & hardware support : Manuel Goepfert

Contact : metmap@orbifly.com




SOURCES & CREDITS :

   NOAA